createdAt,value
2018-12-14T00:01:31.213Z,39.83
2018-12-14T00:04:09.336Z,41.10
2018-12-14T00:06:47.233Z,40.77
2018-12-14T00:09:22.722Z,41.60
2018-12-14T00:11:58.531Z,43.33
2018-12-14T00:14:34.553Z,39.40
2018-12-14T00:17:10.522Z,45.43
2018-12-14T00:19:46.376Z,43.97
2018-12-14T00:22:22.245Z,47.27
2018-12-14T00:24:58.138Z,45.83
2018-12-14T00:27:33.929Z,41.43
2018-12-14T00:30:10.002Z,45.17
2018-12-14T00:32:45.682Z,47.57
2018-12-14T00:35:21.901Z,45.80
2018-12-14T00:37:57.491Z,51.33
2018-12-14T00:40:33.624Z,47.87
2018-12-14T00:43:09.360Z,45.93
2018-12-14T00:45:45.229Z,43.13
2018-12-14T00:48:21.009Z,50.17
2018-12-14T00:50:56.852Z,51.77
2018-12-14T00:53:32.638Z,47.47
2018-12-14T00:56:08.333Z,45.53
2018-12-14T00:58:44.310Z,47.23
2018-12-14T01:01:20.068Z,46.93
2018-12-14T01:03:56.039Z,48.20
2018-12-14T01:06:32.022Z,44.67
2018-12-14T01:09:08.114Z,51.10
2018-12-14T01:11:45.890Z,44.63
2018-12-14T01:14:22.365Z,49.27
2018-12-14T01:16:57.597Z,45.90
2018-12-14T01:19:33.283Z,51.50
2018-12-14T01:22:09.048Z,52.37
2018-12-14T01:24:44.974Z,49.73
2018-12-14T01:27:20.664Z,53.80
2018-12-14T01:29:56.558Z,55.40
2018-12-14T01:32:32.320Z,52.87
2018-12-14T01:35:08.385Z,52.73
2018-12-14T01:37:44.137Z,51.60
2018-12-14T01:40:20.293Z,61.50
2018-12-14T01:42:56.031Z,48.27
2018-12-14T01:45:31.921Z,57.13
2018-12-14T01:48:07.630Z,64.63
2018-12-14T01:50:43.285Z,55.30
2018-12-14T01:53:19.153Z,62.53
2018-12-14T01:55:55.055Z,57.47
2018-12-14T01:58:31.132Z,59.27
2018-12-14T02:39:44.607Z,60.10
2018-12-14T02:42:22.722Z,56.43
2018-12-14T02:45:00.270Z,69.63
2018-12-14T02:47:36.043Z,67.47
2018-12-14T02:50:11.877Z,64.70
2018-12-14T02:52:47.703Z,61.03
2018-12-14T02:55:23.804Z,72.73
2018-12-14T02:58:01.229Z,62.73
2018-12-14T03:00:37.359Z,66.50
2018-12-14T03:03:13.268Z,67.13
2018-12-14T03:05:48.918Z,63.97
2018-12-14T03:08:24.831Z,65.47
2018-12-14T03:11:00.653Z,65.00
2018-12-14T03:13:36.539Z,67.33
2018-12-14T03:16:12.393Z,67.17
2018-12-14T03:18:48.226Z,65.40
2018-12-14T03:21:24.026Z,68.63
2018-12-14T03:23:59.818Z,60.23
2018-12-14T03:26:35.900Z,69.07
2018-12-14T03:29:12.131Z,71.83
2018-12-14T03:31:47.410Z,64.60
2018-12-14T03:34:23.282Z,66.97
2018-12-14T03:36:59.208Z,62.80
2018-12-14T03:39:34.822Z,66.73
2018-12-14T03:42:10.994Z,69.07
2018-12-14T03:44:46.628Z,67.50
2018-12-14T03:47:22.533Z,64.47
2018-12-14T03:49:58.400Z,70.10
2018-12-14T03:52:34.113Z,64.97
2018-12-14T03:55:09.961Z,67.30
2018-12-14T03:57:45.757Z,64.57
2018-12-14T04:00:21.957Z,63.37
2018-12-14T04:02:57.702Z,63.70
2018-12-14T04:05:33.474Z,68.47
2018-12-14T04:08:09.218Z,63.60
2018-12-14T04:10:44.968Z,58.47
2018-12-14T04:13:20.742Z,62.27
2018-12-14T04:15:56.520Z,62.80
2018-12-14T04:18:32.322Z,68.70
2018-12-14T04:21:08.155Z,67.60
2018-12-14T04:23:43.839Z,66.63
2018-12-14T04:26:19.564Z,65.17
2018-12-14T04:28:55.384Z,61.40
2018-12-14T04:31:31.186Z,59.07
2018-12-14T04:34:07.027Z,63.17
2018-12-14T04:36:42.718Z,61.33
2018-12-14T04:39:20.457Z,66.63
2018-12-14T04:41:55.686Z,59.10
2018-12-14T04:44:31.506Z,67.10
2018-12-14T04:47:08.312Z,63.87
2018-12-14T04:49:44.441Z,61.37
2018-12-14T04:52:26.587Z,75.40
2018-12-14T04:55:11.350Z,63.60
2018-12-14T04:57:57.832Z,71.77
2018-12-14T05:00:35.376Z,70.07
2018-12-14T05:03:20.543Z,62.80
2018-12-14T05:05:57.393Z,65.37
2018-12-14T05:08:33.141Z,67.87
2018-12-14T05:11:09.371Z,74.90
2018-12-14T05:13:46.078Z,73.27
2018-12-14T05:16:21.938Z,75.73
2018-12-14T05:18:57.876Z,100.83
2018-12-14T05:21:33.761Z,66.37
2018-12-14T05:24:09.527Z,65.57
2018-12-14T05:26:51.875Z,95.43
2018-12-14T05:29:28.601Z,111.37
2018-12-14T05:32:11.433Z,84.03
2018-12-14T05:34:58.351Z,87.87
2018-12-14T05:37:45.635Z,89.93
2018-12-14T05:40:22.995Z,90.87
2018-12-14T05:43:09.678Z,80.30
2018-12-14T06:08:45.842Z,95.47
2018-12-14T06:11:21.609Z,105.67
2018-12-14T06:14:41.349Z,105.70
2018-12-14T06:17:16.820Z,135.50
2018-12-14T06:19:53.253Z,116.20
2018-12-14T06:22:29.606Z,112.40
2018-12-14T06:25:05.967Z,101.50
2018-12-14T06:27:41.759Z,106.50
2018-12-14T06:30:17.334Z,113.07
2018-12-14T06:32:53.056Z,121.63
2018-12-14T06:35:29.155Z,117.30
2018-12-14T06:38:04.964Z,100.47
2018-12-14T06:40:42.069Z,118.33
2018-12-14T06:46:32.440Z,94.70
2018-12-14T06:49:08.457Z,108.33
2018-12-14T06:51:44.045Z,125.53
2018-12-14T06:54:20.321Z,111.47
2018-12-14T06:56:55.812Z,105.50
2018-12-14T06:59:31.772Z,82.07
2018-12-14T07:02:07.459Z,86.57
2018-12-14T07:04:43.269Z,109.40
2018-12-14T07:07:19.158Z,92.13
2018-12-14T07:09:55.060Z,93.93
2018-12-14T07:12:38.186Z,97.03
2018-12-14T07:15:23.534Z,115.10
2018-12-14T07:18:00.621Z,98.23
2018-12-14T07:20:36.105Z,119.70
2018-12-14T07:23:11.699Z,116.03
2018-12-14T07:25:47.644Z,119.20
2018-12-14T07:28:23.780Z,119.93
2018-12-14T07:30:59.594Z,95.03
2018-12-14T07:33:35.383Z,98.60
2018-12-14T07:36:11.342Z,118.80
2018-12-14T07:38:48.267Z,136.40
2018-12-14T07:41:24.876Z,126.47
2018-12-14T07:44:00.445Z,104.47
2018-12-14T07:46:37.035Z,117.37
2018-12-14T07:49:12.763Z,129.43
2018-12-14T07:51:48.931Z,118.70
2018-12-14T07:54:24.428Z,125.37
2018-12-14T07:57:00.095Z,104.63
2018-12-14T07:59:36.033Z,89.20
2018-12-14T08:02:11.709Z,115.93
2018-12-14T08:04:47.449Z,138.67
2018-12-14T08:07:23.229Z,95.93
2018-12-14T08:09:59.140Z,109.17
2018-12-14T08:12:34.896Z,158.97
2018-12-14T08:15:11.672Z,111.57
2018-12-14T08:17:47.428Z,103.60
2018-12-14T08:20:23.217Z,111.00
2018-12-14T08:22:59.044Z,124.63
2018-12-14T08:25:34.795Z,139.93
2018-12-14T08:28:10.797Z,111.27
2018-12-14T08:30:46.537Z,126.10
2018-12-14T08:33:22.393Z,113.27
2018-12-14T08:35:58.201Z,109.17
2018-12-14T08:38:34.121Z,106.33
2018-12-14T08:41:09.957Z,126.73
2018-12-14T08:43:45.830Z,95.10
2018-12-14T08:46:21.507Z,87.70
2018-12-14T08:48:57.279Z,96.80
2018-12-14T08:51:33.133Z,79.93
2018-12-14T08:54:09.211Z,83.27
2018-12-14T08:56:45.692Z,86.83
2018-12-14T08:59:21.626Z,72.40
2018-12-14T09:01:57.339Z,77.00
2018-12-14T09:04:33.064Z,73.10
2018-12-14T09:07:09.788Z,70.60
2018-12-14T09:09:46.874Z,72.67
2018-12-14T09:12:22.531Z,64.00
2018-12-14T09:14:58.524Z,54.53
2018-12-14T09:17:34.244Z,67.37
2018-12-14T09:20:10.426Z,61.27
2018-12-14T09:22:45.863Z,61.80
2018-12-14T09:25:21.688Z,58.67
2018-12-14T09:27:57.456Z,60.60
2018-12-14T09:30:34.042Z,58.07
2018-12-14T09:33:09.898Z,51.23
2018-12-14T09:35:45.899Z,59.23
2018-12-14T09:38:21.624Z,58.80
2018-12-14T09:40:57.757Z,47.00
2018-12-14T09:43:33.381Z,60.67
2018-12-14T09:46:09.444Z,50.97
2018-12-14T09:48:45.202Z,54.83
2018-12-14T09:51:21.296Z,52.70
2018-12-14T09:53:56.948Z,51.63
2018-12-14T09:56:32.961Z,53.60
2018-12-14T09:59:08.957Z,48.67
2018-12-14T10:01:45.020Z,40.40
2018-12-14T10:04:21.136Z,52.20
2018-12-14T10:06:56.953Z,45.80
2018-12-14T10:09:32.937Z,45.80
2018-12-14T10:12:10.944Z,47.47
2018-12-14T10:14:47.056Z,49.13
2018-12-14T10:17:23.002Z,44.07
2018-12-14T10:19:58.673Z,44.83
2018-12-14T10:22:34.808Z,50.33
2018-12-14T10:25:10.386Z,43.83
2018-12-14T10:27:47.160Z,44.80
2018-12-14T10:30:23.080Z,48.07
2018-12-14T10:32:58.822Z,52.37
2018-12-14T10:35:34.544Z,46.93
2018-12-14T10:38:10.292Z,47.47
2018-12-14T10:40:46.051Z,45.30
2018-12-14T10:43:21.901Z,49.73
2018-12-14T10:45:58.440Z,49.37
2018-12-14T10:48:34.822Z,50.80
2018-12-14T10:51:11.649Z,44.53
2018-12-14T10:53:47.231Z,46.20
2018-12-14T10:56:22.968Z,46.93
2018-12-14T10:58:58.669Z,47.33
2018-12-14T11:01:40.110Z,41.90
2018-12-14T11:04:16.322Z,43.97
2018-12-14T11:06:53.995Z,41.53
2018-12-14T11:09:30.148Z,41.70
2018-12-14T11:12:05.713Z,43.83
2018-12-14T11:14:41.688Z,45.67
2018-12-14T11:17:17.305Z,43.60
2018-12-14T11:19:53.272Z,38.57
2018-12-14T11:22:29.371Z,41.63
2018-12-14T11:25:06.369Z,39.57
2018-12-14T11:27:41.733Z,35.50
2018-12-14T11:30:17.938Z,42.13
2018-12-14T11:32:53.737Z,37.23
2018-12-14T11:35:29.640Z,35.37
2018-12-14T11:38:05.193Z,35.83
2018-12-14T11:40:40.754Z,37.70
2018-12-14T11:43:16.540Z,35.40
2018-12-14T11:45:52.830Z,35.80
2018-12-14T11:48:28.614Z,33.90
2018-12-14T11:51:04.452Z,33.97
2018-12-14T11:53:40.037Z,39.33
2018-12-14T11:56:17.880Z,33.90
2018-12-14T11:58:54.079Z,33.50
2018-12-14T12:01:30.404Z,33.23
2018-12-14T12:04:05.952Z,31.57
2018-12-14T12:06:41.975Z,30.23
2018-12-14T12:09:17.787Z,31.57
2018-12-14T12:11:53.095Z,35.70
2018-12-14T12:14:29.442Z,32.37
2018-12-14T12:17:10.830Z,29.90
2018-12-14T12:19:47.934Z,34.63
2018-12-14T12:22:24.058Z,33.00
2018-12-14T12:25:00.131Z,39.83
2018-12-14T12:27:35.903Z,35.97
2018-12-14T12:30:12.062Z,31.77
2018-12-14T12:32:48.142Z,35.90
2018-12-14T12:35:23.688Z,36.03
2018-12-14T12:38:04.209Z,40.80
2018-12-14T12:40:41.182Z,32.30
2018-12-14T12:43:17.074Z,40.30
2018-12-14T12:45:53.168Z,32.50
2018-12-14T12:48:28.935Z,34.37
2018-12-14T12:51:05.139Z,28.17
2018-12-14T12:53:40.847Z,30.87
2018-12-14T12:56:17.334Z,33.63
2018-12-14T12:58:54.382Z,35.47
2018-12-14T13:01:29.818Z,35.67
2018-12-14T13:04:05.568Z,31.90
2018-12-14T13:06:41.414Z,32.10
2018-12-14T13:09:17.285Z,30.17
2018-12-14T13:11:53.319Z,27.73
2018-12-14T13:14:40.045Z,32.17
2018-12-14T13:17:22.256Z,32.47
2018-12-14T13:20:09.066Z,29.37
2018-12-14T13:22:50.686Z,31.20
2018-12-14T13:28:47.258Z,30.50
2018-12-14T13:31:33.894Z,27.70
2018-12-14T13:34:17.274Z,31.77
2018-12-14T14:05:02.978Z,25.50
2018-12-14T14:07:38.982Z,24.47
2018-12-14T14:10:36.448Z,30.00
2018-12-14T14:13:20.370Z,26.87
2018-12-14T14:38:44.125Z,28.67
2018-12-14T15:21:15.759Z,46.57
2018-12-14T15:27:15.665Z,45.13
2018-12-14T15:32:41.814Z,51.37
2018-12-14T15:35:34.991Z,48.73
2018-12-14T15:44:38.352Z,51.63
2018-12-14T15:47:26.059Z,50.93
2018-12-14T15:50:21.139Z,52.80
2018-12-14T15:53:31.938Z,53.77
2018-12-14T15:56:17.162Z,56.60
2018-12-14T15:59:01.677Z,55.17
2018-12-14T16:01:44.065Z,51.77
2018-12-14T16:04:40.584Z,58.63
2018-12-14T16:07:35.837Z,56.43
2018-12-14T16:10:47.596Z,55.33
2018-12-14T16:13:41.875Z,53.73
2018-12-14T16:16:26.055Z,58.17
2018-12-14T16:19:08.919Z,63.10
2018-12-14T16:21:45.613Z,54.03
2018-12-14T16:24:22.824Z,56.57
2018-12-14T16:33:18.835Z,55.93
2018-12-14T16:36:05.147Z,56.37
2018-12-14T16:42:55.970Z,58.40
2018-12-14T16:45:32.208Z,58.13
2018-12-14T16:48:12.168Z,62.27
2018-12-14T16:50:53.257Z,56.73
2018-12-14T16:53:30.855Z,57.87
2018-12-14T16:56:06.538Z,61.57
2018-12-14T16:58:42.696Z,62.17
2018-12-14T17:01:18.526Z,61.57
2018-12-14T17:03:54.184Z,64.27
2018-12-14T17:06:30.220Z,66.43
2018-12-14T17:09:06.973Z,59.30
2018-12-14T17:11:44.965Z,66.00
2018-12-14T17:14:21.112Z,56.43
2018-12-14T17:16:57.270Z,55.27
2018-12-14T17:19:33.816Z,56.63
2018-12-14T17:22:10.456Z,61.77
2018-12-14T17:24:46.623Z,55.60
2018-12-14T17:27:23.112Z,57.47
2018-12-14T17:29:59.697Z,57.63
2018-12-14T17:32:36.513Z,58.23
2018-12-14T17:35:12.211Z,57.80
2018-12-14T17:37:48.735Z,55.53
2018-12-14T17:40:25.740Z,60.83
2018-12-14T17:43:01.520Z,55.63
2018-12-14T17:45:39.835Z,60.47
2018-12-14T17:48:16.487Z,58.33
2018-12-14T17:50:52.312Z,61.17
2018-12-14T17:53:27.968Z,65.80
2018-12-14T17:56:05.543Z,59.30
2018-12-14T17:58:41.605Z,57.03
2018-12-14T18:01:18.367Z,61.10
2018-12-14T18:03:54.397Z,58.83
2018-12-14T18:06:30.495Z,58.40
2018-12-14T18:09:06.311Z,58.03
2018-12-14T18:11:44.289Z,59.03
2018-12-14T18:14:20.774Z,52.83
2018-12-14T18:16:56.812Z,59.87
2018-12-14T18:19:34.331Z,54.37
2018-12-14T18:22:09.588Z,64.83
2018-12-14T18:24:45.411Z,63.93
2018-12-14T18:27:21.126Z,61.90
2018-12-14T18:29:57.665Z,59.43
2018-12-14T18:32:34.026Z,65.90
2018-12-14T18:35:09.948Z,64.00
2018-12-14T18:37:45.666Z,81.27
2018-12-14T18:40:21.593Z,72.60
2018-12-14T18:42:57.145Z,60.90
2018-12-14T18:45:33.140Z,62.13
2018-12-14T18:48:08.910Z,62.13
2018-12-14T18:50:44.658Z,61.10
2018-12-14T18:53:20.215Z,60.80
2018-12-14T18:55:56.064Z,58.70
2018-12-14T18:58:31.972Z,66.17
2018-12-14T19:01:07.737Z,62.97
2018-12-14T19:03:43.379Z,55.00
2018-12-14T19:06:19.669Z,64.03
2018-12-14T19:08:55.304Z,65.67
2018-12-14T19:11:32.211Z,63.50
2018-12-14T19:14:09.004Z,63.53
2018-12-14T19:16:45.081Z,62.63
2018-12-14T19:19:21.074Z,65.50
2018-12-14T19:21:57.091Z,62.33
2018-12-14T19:24:35.253Z,68.13
2018-12-14T19:27:11.454Z,60.70
2018-12-14T19:29:47.834Z,64.53
2018-12-14T19:32:23.599Z,68.73
2018-12-14T19:34:59.357Z,65.00
2018-12-14T19:37:37.226Z,57.87
2018-12-14T19:40:17.033Z,64.27
2018-12-14T19:42:56.000Z,59.83
2018-12-14T19:45:45.990Z,59.53
2018-12-14T19:48:27.034Z,57.73
2018-12-14T19:57:56.755Z,51.30
2018-12-14T20:00:32.581Z,47.90
2018-12-14T20:03:08.637Z,45.97
2018-12-14T20:05:49.909Z,46.30
2018-12-14T20:08:35.455Z,43.83
2018-12-14T20:11:13.062Z,42.67
2018-12-14T20:13:49.070Z,39.90
2018-12-14T20:16:27.819Z,43.80
2018-12-14T20:19:03.538Z,42.80
2018-12-14T20:21:40.593Z,40.97
2018-12-14T20:24:19.476Z,44.87
2018-12-14T20:27:03.227Z,42.10
2018-12-14T20:30:00.885Z,44.10
2018-12-14T20:35:45.128Z,45.73
2018-12-14T20:38:25.432Z,41.90
2018-12-14T20:41:03.226Z,41.23
2018-12-14T20:43:39.455Z,39.37
2018-12-14T20:46:21.267Z,42.70
2018-12-14T20:49:04.009Z,44.93
2018-12-14T20:51:45.027Z,39.23
2018-12-14T20:54:24.841Z,43.57
2018-12-14T20:57:04.828Z,47.17
2018-12-14T20:59:50.797Z,47.83
2018-12-14T21:02:27.897Z,45.63
2018-12-14T21:05:08.831Z,44.97
2018-12-14T21:07:49.657Z,45.40
2018-12-14T21:10:28.830Z,41.93
2018-12-14T21:13:25.891Z,43.80
2018-12-14T21:16:04.853Z,46.07
2018-12-14T21:18:41.472Z,46.53
2018-12-14T21:21:17.036Z,49.33
2018-12-14T21:23:53.049Z,47.17
2018-12-14T21:26:28.708Z,44.00
2018-12-14T21:29:04.732Z,49.83
2018-12-14T21:31:40.437Z,44.90
2018-12-14T21:34:16.998Z,48.80
2018-12-14T21:36:53.174Z,48.40
2018-12-14T21:39:29.088Z,50.43
2018-12-14T21:42:04.949Z,50.13
2018-12-14T21:44:40.541Z,52.40
2018-12-14T21:47:16.433Z,50.10
2018-12-14T21:49:52.297Z,47.17
2018-12-14T21:52:28.240Z,45.47
2018-12-14T21:55:04.089Z,52.53
2018-12-14T21:57:40.877Z,47.40
2018-12-14T22:00:18.635Z,49.40
2018-12-14T22:02:54.653Z,49.07
2018-12-14T22:05:30.759Z,49.70
2018-12-14T22:08:06.396Z,49.60
2018-12-14T22:10:42.078Z,51.90
2018-12-14T22:13:17.803Z,49.07
2018-12-14T22:15:53.633Z,49.50
2018-12-14T22:18:29.533Z,51.10
2018-12-14T22:21:05.026Z,50.23
2018-12-14T22:23:41.178Z,52.93
2018-12-14T22:26:16.848Z,52.67
2018-12-14T22:28:52.716Z,49.57
2018-12-14T22:31:28.712Z,46.80
2018-12-14T22:34:04.420Z,50.63
2018-12-14T22:36:40.307Z,53.27
2018-12-14T22:39:16.254Z,51.07
2018-12-14T22:41:52.061Z,58.83
2018-12-14T22:44:27.937Z,52.73
2018-12-14T22:47:03.977Z,53.40
2018-12-14T22:49:39.623Z,48.97
2018-12-14T22:52:17.887Z,52.13
2018-12-14T22:54:53.417Z,52.00
2018-12-14T22:57:29.362Z,50.90
2018-12-14T23:00:08.226Z,51.67
2018-12-14T23:02:44.357Z,50.77
2018-12-14T23:05:20.147Z,50.90
2018-12-14T23:07:55.994Z,53.77
2018-12-14T23:10:31.618Z,56.70
2018-12-14T23:13:09.798Z,53.83
2018-12-14T23:15:45.597Z,50.73
2018-12-14T23:18:21.660Z,56.13
2018-12-14T23:20:57.532Z,58.13
2018-12-14T23:23:33.567Z,54.27
2018-12-14T23:26:09.219Z,50.40
2018-12-14T23:28:45.025Z,52.20
2018-12-14T23:31:20.879Z,58.77
2018-12-14T23:33:56.778Z,53.80
2018-12-14T23:36:32.633Z,51.53
2018-12-14T23:39:08.414Z,56.83
2018-12-14T23:41:46.119Z,56.20
2018-12-14T23:44:21.968Z,52.83
2018-12-14T23:46:59.013Z,55.37
2018-12-14T23:49:34.797Z,58.13
2018-12-14T23:52:10.737Z,54.90
2018-12-14T23:54:46.910Z,53.43
2018-12-14T23:57:22.688Z,56.57
2018-12-14T23:59:58.740Z,51.67
